Time;durP1;ratioP1;P1;durP2;ratioP2;P2;SDS_P1;SDS_P2;PMS_P1;PMS_P2;Temp;Humidity;BMP_temperature;BMP_pressure;BME280_temperature;BME280_humidity;BME280_pressure;Samples;Min_cycle;Max_cycle;Signal;HPM_P1;HPM_P2
2023/09/23 00:00:57;;;;;;;11.55;4.25;;;;;;;8.16;100.00;100167.44;5086207;28;20028;-80
2023/09/23 00:03:23;;;;;;;8.18;2.78;;;;;;;8.16;100.00;100162.16;5073795;28;20399;-81
2023/09/23 00:05:50;;;;;;;10.18;1.88;;;;;;;8.21;100.00;100167.84;5071363;28;20455;-81
2023/09/23 00:08:19;;;;;;;8.63;2.08;;;;;;;8.15;100.00;100161.34;5081187;28;20541;-81
2023/09/23 00:10:50;;;;;;;7.20;1.80;;;;;;;8.11;100.00;100161.72;5058695;28;20126;-80
2023/09/23 00:13:18;;;;;;;8.45;2.58;;;;;;;8.04;100.00;100175.44;5073995;28;20080;-81
2023/09/23 00:15:43;;;;;;;11.85;2.88;;;;;;;7.97;100.00;100169.03;5047659;28;20043;-83
2023/09/23 00:18:09;;;;;;;9.32;2.58;;;;;;;7.96;100.00;100172.66;5026599;28;20685;-83
2023/09/23 00:20:38;;;;;;;8.60;2.38;;;;;;;7.91;100.00;100173.06;5059545;28;20031;-83
2023/09/23 00:23:06;;;;;;;10.65;3.00;;;;;;;7.86;100.00;100177.88;5070519;28;20127;-83
2023/09/23 00:25:33;;;;;;;9.45;3.00;;;;;;;7.88;100.00;100169.84;5077732;28;20043;-83
2023/09/23 00:27:59;;;;;;;10.75;2.28;;;;;;;7.94;100.00;100172.78;5061661;28;20484;-83
2023/09/23 00:30:26;;;;;;;6.30;2.38;;;;;;;7.98;100.00;100172.53;5068970;28;20043;-81
2023/09/23 00:32:52;;;;;;;8.15;2.47;;;;;;;7.98;100.00;100175.97;5058436;28;20050;-81
2023/09/23 00:35:18;;;;;;;8.35;2.70;;;;;;;7.98;100.00;100181.22;5075715;28;20043;-81
2023/09/23 00:37:48;;;;;;;6.13;2.72;;;;;;;8.03;100.00;100165.03;5055871;28;20046;-80
2023/09/23 00:40:18;;;;;;;8.43;2.45;;;;;;;8.00;100.00;100176.69;5074057;28;20031;-80
2023/09/23 00:42:48;;;;;;;10.98;2.30;;;;;;;8.00;100.00;100176.69;5075732;28;20036;-81
2023/09/23 00:45:15;;;;;;;12.45;2.72;;;;;;;7.98;100.00;100173.34;5075027;28;20046;-81
2023/09/23 00:47:46;;;;;;;10.77;2.53;;;;;;;8.01;100.00;100167.81;5088018;28;20024;-78
2023/09/23 00:50:18;;;;;;;11.27;2.22;;;;;;;8.07;100.00;100169.91;5054060;28;20491;-81
2023/09/23 00:52:51;;;;;;;8.20;1.88;;;;;;;8.11;100.00;100167.84;5053749;28;20028;-81
2023/09/23 00:55:19;;;;;;;10.20;2.20;;;;;;;8.14;100.00;100178.09;5074864;28;20444;-81
2023/09/23 00:57:52;;;;;;;11.73;2.33;;;;;;;8.10;100.00;100167.97;5073963;28;20042;-82
2023/09/23 01:00:27;;;;;;;8.20;1.88;;;;;;;8.12;100.00;100172.13;5055256;28;20032;-81
2023/09/23 01:02:57;;;;;;;9.85;1.98;;;;;;;8.13;100.00;100170.31;5071897;28;20044;-82
2023/09/23 01:05:29;;;;;;;12.15;2.65;;;;;;;8.14;100.00;100172.81;5069722;28;20024;-80
2023/09/23 01:07:56;;;;;;;7.63;1.75;;;;;;;8.12;100.00;100164.22;5057663;28;20027;-78
2023/09/23 01:10:23;;;;;;;6.55;2.20;;;;;;;8.12;100.00;100168.69;5087214;28;20088;-80
2023/09/23 01:12:49;;;;;;;6.32;1.92;;;;;;;8.05;100.00;100169.22;5080666;28;20036;-80
2023/09/23 01:15:17;;;;;;;10.43;2.28;;;;;;;7.97;100.00;100166.41;5079130;28;20020;-80
2023/09/23 01:17:49;;;;;;;7.10;1.90;;;;;;;7.97;100.00;100170.84;5066176;28;20044;-81
2023/09/23 01:20:16;;;;;;;8.75;2.95;;;;;;;7.92;100.00;100168.59;5059807;28;20089;-80
2023/09/23 01:22:44;;;;;;;7.03;3.38;;;;;;;7.87;100.00;100174.28;5053580;28;20072;-75
2023/09/23 01:25:10;;;;;;;12.43;3.58;;;;;;;7.78;100.00;100168.03;5074389;28;20043;-76
2023/09/23 01:27:36;;;;;;;11.93;3.35;;;;;;;7.74;100.00;100168.44;5091361;28;20472;-76
2023/09/23 01:30:06;;;;;;;10.88;2.30;;;;;;;7.71;100.00;100166.88;5073171;28;20032;-76
2023/09/23 01:32:39;;;;;;;8.57;2.53;;;;;;;7.71;100.00;100172.13;5069482;28;20460;-75
2023/09/23 01:35:05;;;;;;;8.35;2.40;;;;;;;7.67;100.00;100183.91;5073939;28;20031;-76
2023/09/23 01:37:31;;;;;;;5.22;2.17;;;;;;;7.63;100.00;100167.53;5057811;28;20032;-74
2023/09/23 01:39:57;;;;;;;13.15;2.15;;;;;;;7.58;100.00;100161.81;5092779;28;20034;-76
2023/09/23 01:42:22;;;;;;;7.68;2.38;;;;;;;7.57;100.00;100163.66;5094461;28;20040;-76
2023/09/23 01:44:48;;;;;;;7.65;2.97;;;;;;;7.56;100.00;100167.22;5090806;28;20039;-76
2023/09/23 01:47:17;;;;;;;23.30;7.47;;;;;;;7.56;100.00;100169.84;5081753;28;20031;-76
2023/09/23 01:49:45;;;;;;;13.57;5.50;;;;;;;7.55;100.00;100169.97;5078452;28;20035;-77
2023/09/23 01:52:11;;;;;;;17.27;4.57;;;;;;;7.58;100.00;100180.25;5078704;28;20036;-77
2023/09/23 01:54:37;;;;;;;10.88;3.10;;;;;;;7.53;100.00;100175.38;5062872;28;20038;-76
2023/09/23 01:57:04;;;;;;;8.77;3.17;;;;;;;7.51;100.00;100176.47;5072288;28;20035;-76
2023/09/23 01:59:29;;;;;;;9.05;3.13;;;;;;;7.56;100.00;100185.63;5079953;28;20034;-77
2023/09/23 02:01:55;;;;;;;7.65;3.10;;;;;;;7.62;100.00;100179.03;5072573;27;20027;-77
2023/09/23 02:04:21;;;;;;;9.75;3.13;;;;;;;7.66;100.00;100180.41;5084222;27;20031;-77
2023/09/23 02:06:46;;;;;;;7.93;2.83;;;;;;;7.69;100.00;100181.97;5116867;27;20036;-77
2023/09/23 02:09:12;;;;;;;10.15;2.80;;;;;;;7.72;100.00;100181.72;5093224;28;20028;-76
2023/09/23 02:11:38;;;;;;;8.63;2.83;;;;;;;7.71;100.00;100180.03;5091307;28;20081;-76
2023/09/23 02:14:05;;;;;;;10.93;3.20;;;;;;;7.75;100.00;100172.72;5061400;28;20039;-76
2023/09/23 02:16:31;;;;;;;9.23;3.00;;;;;;;7.78;100.00;100169.81;5075168;28;20028;-77
2023/09/23 02:18:56;;;;;;;9.30;2.65;;;;;;;7.78;100.00;100180.34;5098207;27;20028;-77
2023/09/23 02:21:22;;;;;;;8.68;2.30;;;;;;;7.84;100.00;100190.31;5108896;27;20031;-77
2023/09/23 02:23:48;;;;;;;8.43;2.45;;;;;;;7.86;100.00;100179.66;5082166;28;20145;-77
2023/09/23 02:26:14;;;;;;;7.70;2.13;;;;;;;7.82;100.00;100173.84;5085563;28;20488;-77
2023/09/23 02:28:41;;;;;;;10.45;2.35;;;;;;;7.78;100.00;100175.91;5074378;28;20032;-77
2023/09/23 02:31:06;;;;;;;6.72;1.95;;;;;;;7.79;100.00;100182.00;5096036;28;20028;-77
2023/09/23 02:33:32;;;;;;;9.05;2.83;;;;;;;7.80;100.00;100170.53;5068135;28;20043;-77
2023/09/23 02:35:58;;;;;;;7.15;2.67;;;;;;;7.79;100.00;100177.56;5074177;28;20024;-76
2023/09/23 02:38:24;;;;;;;7.35;2.10;;;;;;;7.77;100.00;100174.22;5095456;28;20039;-77
2023/09/23 02:40:50;;;;;;;7.50;2.42;;;;;;;7.75;100.00;100178.81;5072711;28;20035;-77
2023/09/23 02:43:20;;;;;;;8.63;2.58;;;;;;;7.79;100.00;100172.31;5071443;28;20436;-77
2023/09/23 02:45:50;;;;;;;6.07;2.15;;;;;;;7.81;100.00;100169.53;5078390;28;20040;-76
2023/09/23 02:48:16;;;;;;;9.88;2.63;;;;;;;7.86;100.00;100170.00;5083981;28;20035;-77
2023/09/23 02:50:42;;;;;;;12.95;2.42;;;;;;;7.91;100.00;100175.69;5081093;28;20040;-77
2023/09/23 02:53:10;;;;;;;6.45;2.28;;;;;;;7.94;100.00;100170.16;5076803;28;20139;-78
2023/09/23 02:55:41;;;;;;;10.68;1.88;;;;;;;7.97;100.00;100173.47;5071917;28;20036;-77
2023/09/23 02:58:07;;;;;;;6.40;2.20;;;;;;;7.99;100.00;100167.13;5087355;28;20032;-77
2023/09/23 03:00:34;;;;;;;8.73;2.45;;;;;;;8.02;100.00;100172.13;5091511;28;20556;-77
2023/09/23 03:03:08;;;;;;;7.05;2.35;;;;;;;8.04;100.00;100174.63;5090720;28;20040;-76
2023/09/23 03:05:38;;;;;;;8.48;2.88;;;;;;;7.98;100.00;100170.69;5103146;27;20036;-77
2023/09/23 03:08:07;;;;;;;9.70;2.60;;;;;;;7.99;100.00;100169.75;5067626;28;20036;-76
2023/09/23 03:10:39;;;;;;;10.90;3.03;;;;;;;8.00;100.00;100167.94;5096838;28;20043;-77
2023/09/23 03:13:11;;;;;;;5.68;2.92;;;;;;;8.03;100.00;100172.94;5076398;28;20035;-76
2023/09/23 03:18:39;;;;;;;9.55;2.83;;;;;;;7.89;100.00;100168.88;5069052;28;20048;-77
2023/09/23 03:21:10;;;;;;;8.85;3.28;;;;;;;7.85;100.00;100159.59;5081120;28;20412;-76
2023/09/23 03:23:39;;;;;;;5.60;2.78;;;;;;;7.80;100.00;100166.06;5071680;28;20396;-77
2023/09/23 03:26:06;;;;;;;6.68;2.55;;;;;;;7.80;100.00;100166.06;5083118;28;20028;-76
2023/09/23 03:28:34;;;;;;;8.63;2.83;;;;;;;7.74;100.00;100156.09;5085944;28;20070;-76
2023/09/23 03:31:01;;;;;;;10.95;2.88;;;;;;;7.73;100.00;100158.84;5055354;28;20480;-77
2023/09/23 03:33:27;;;;;;;9.90;2.60;;;;;;;7.73;100.00;100159.69;5073287;28;20552;-76
2023/09/23 03:35:54;;;;;;;9.57;3.10;;;;;;;7.77;100.00;100171.59;5091443;28;20045;-77
2023/09/23 03:38:20;;;;;;;8.07;3.00;;;;;;;7.81;100.00;100170.38;5057109;28;20138;-76
2023/09/23 03:40:53;;;;;;;7.25;2.97;;;;;;;7.86;100.00;100170.00;5067782;28;20535;-76
2023/09/23 03:43:21;;;;;;;14.80;2.85;;;;;;;7.82;100.00;100161.53;5057786;28;20535;-76
2023/09/23 03:45:47;;;;;;;7.88;2.63;;;;;;;7.84;100.00;100168.44;5102707;28;20052;-77
2023/09/23 03:48:15;;;;;;;7.30;2.50;;;;;;;7.84;100.00;100171.91;5089847;28;20032;-76
2023/09/23 03:50:41;;;;;;;6.78;2.67;;;;;;;7.88;100.00;100167.22;5064916;28;20035;-77
2023/09/23 03:53:07;;;;;;;10.23;2.63;;;;;;;7.91;100.00;100165.16;5063543;28;20077;-77
2023/09/23 03:55:32;;;;;;;12.32;3.33;;;;;;;7.92;100.00;100169.44;5064494;28;20048;-77
2023/09/23 03:57:59;;;;;;;7.65;2.25;;;;;;;7.95;100.00;100170.97;5067311;28;20039;-76
2023/09/23 04:00:27;;;;;;;7.28;2.05;;;;;;;7.94;100.00;100179.84;5063785;28;20034;-77
2023/09/23 04:02:54;;;;;;;8.18;2.40;;;;;;;7.91;100.00;100182.75;5073563;28;20044;-77
2023/09/23 04:05:23;;;;;;;6.55;1.90;;;;;;;7.92;100.00;100166.81;5086026;28;20024;-77
2023/09/23 04:07:50;;;;;;;7.68;2.47;;;;;;;7.90;100.00;100165.31;5071192;28;20031;-77
2023/09/23 04:10:23;;;;;;;10.85;2.20;;;;;;;7.93;100.00;100178.19;5083118;28;20491;-76
2023/09/23 04:12:49;;;;;;;9.82;2.08;;;;;;;7.91;100.00;100169.59;5071227;28;20048;-77
2023/09/23 04:15:15;;;;;;;9.77;2.22;;;;;;;7.90;100.00;100167.94;5074771;27;20039;-77
2023/09/23 04:17:41;;;;;;;8.70;2.38;;;;;;;7.89;100.00;100176.78;5103343;28;20039;-77
2023/09/23 04:20:11;;;;;;;10.07;2.50;;;;;;;7.87;100.00;100171.66;5105725;28;20023;-77
2023/09/23 04:22:37;;;;;;;10.63;2.08;;;;;;;7.88;100.00;100170.69;5080887;28;20915;-76
2023/09/23 04:25:05;;;;;;;6.93;2.13;;;;;;;7.90;100.00;100176.63;5072618;28;20084;-77
2023/09/23 04:27:38;;;;;;;8.88;2.35;;;;;;;7.93;100.00;100181.63;5077054;28;20035;-76
2023/09/23 04:30:15;;;;;;;9.65;2.15;;;;;;;7.96;100.00;100179.72;5065646;28;20040;-77
2023/09/23 04:32:41;;;;;;;7.03;1.70;;;;;;;7.92;100.00;100179.97;5068668;27;20459;-77
2023/09/23 04:35:08;;;;;;;6.93;2.17;;;;;;;7.93;100.00;100183.44;5098282;27;20484;-76
2023/09/23 04:37:38;;;;;;;10.98;2.05;;;;;;;7.92;100.00;100176.50;5073676;28;20487;-76
2023/09/23 04:40:11;;;;;;;9.93;2.75;;;;;;;7.96;100.00;100177.06;5069297;28;20425;-77
2023/09/23 04:42:39;;;;;;;6.60;1.80;;;;;;;7.94;100.00;100166.69;5078999;28;20039;-76
2023/09/23 04:45:05;;;;;;;9.32;2.30;;;;;;;7.90;100.00;100166.13;5072531;28;20514;-77
2023/09/23 04:47:32;;;;;;;10.60;2.15;;;;;;;7.89;100.00;100174.13;5062624;28;20514;-77
2023/09/23 04:49:59;;;;;;;6.70;2.00;;;;;;;7.87;100.00;100169.00;5055785;28;20173;-78
2023/09/23 04:52:27;;;;;;;10.30;1.70;;;;;;;7.82;100.00;100172.03;5071931;28;20535;-77
2023/09/23 04:54:54;;;;;;;7.18;1.73;;;;;;;7.82;100.00;100163.31;5069274;28;20067;-77
2023/09/23 04:57:21;;;;;;;5.50;1.70;;;;;;;7.79;100.00;100153.88;5096858;28;20114;-77
2023/09/23 04:59:47;;;;;;;8.40;1.95;;;;;;;7.75;100.00;100165.66;5071303;28;20183;-76
2023/09/23 05:02:13;;;;;;;7.10;1.40;;;;;;;7.69;100.00;100172.28;5070974;28;20031;-77
2023/09/23 05:04:39;;;;;;;4.57;1.30;;;;;;;7.63;100.00;100166.72;5072151;28;20123;-77
2023/09/23 05:07:05;;;;;;;9.30;2.15;;;;;;;7.57;100.00;100176.81;5085960;28;20031;-76
2023/09/23 05:09:31;;;;;;;4.43;1.80;;;;;;;7.55;100.00;100176.09;5075572;28;20134;-77
2023/09/23 05:11:57;;;;;;;7.82;1.83;;;;;;;7.50;100.00;100175.63;5086894;28;20088;-77
2023/09/23 05:14:25;;;;;;;7.78;1.60;;;;;;;7.45;100.00;100178.66;5069666;28;20566;-77
2023/09/23 05:16:51;;;;;;;11.05;2.05;;;;;;;7.41;100.00;100164.13;5079983;28;20107;-77
2023/09/23 05:19:21;;;;;;;3.42;1.40;;;;;;;7.36;100.00;100168.13;5079077;28;20035;-78
2023/09/23 05:21:49;;;;;;;5.03;1.65;;;;;;;7.26;100.00;100162.78;5059219;28;20039;-78
2023/09/23 05:24:16;;;;;;;5.35;1.90;;;;;;;7.18;100.00;100163.44;5087256;28;20040;-77
2023/09/23 05:26:43;;;;;;;7.22;1.63;;;;;;;7.15;100.00;100161.88;5089215;28;20063;-77
2023/09/23 05:29:09;;;;;;;11.48;2.67;;;;;;;7.14;100.00;100154.13;5087416;28;20541;-77
2023/09/23 05:31:37;;;;;;;7.78;1.98;;;;;;;7.12;100.00;100161.34;5071131;28;20040;-77
2023/09/23 05:34:04;;;;;;;4.60;2.10;;;;;;;7.16;100.00;100168.00;5076650;28;20147;-77
2023/09/23 05:36:33;;;;;;;5.57;1.40;;;;;;;7.14;100.00;100165.50;5060923;28;20075;-77
2023/09/23 05:38:59;;;;;;;8.95;1.92;;;;;;;7.13;100.00;100179.59;5074422;28;20035;-78
2023/09/23 05:41:25;;;;;;;5.13;1.45;;;;;;;7.14;100.00;100177.78;5049853;28;20318;-77
2023/09/23 05:43:54;;;;;;;3.63;1.48;;;;;;;7.13;100.00;100179.59;5069278;28;20032;-76
2023/09/23 05:46:20;;;;;;;8.90;2.08;;;;;;;7.12;100.00;100185.00;5060496;28;20035;-77
2023/09/23 05:48:48;;;;;;;6.70;1.58;;;;;;;7.07;100.00;100166.97;5089214;28;20613;-77
2023/09/23 05:51:15;;;;;;;6.57;1.77;;;;;;;7.05;100.00;100182.88;5078317;28;20043;-77
2023/09/23 05:53:42;;;;;;;5.43;1.55;;;;;;;7.05;100.00;100187.28;5058792;28;20043;-77
2023/09/23 05:56:08;;;;;;;6.72;1.80;;;;;;;6.99;100.00;100180.72;5075844;28;20472;-77
2023/09/23 05:58:34;;;;;;;8.98;1.77;;;;;;;7.04;100.00;100185.63;5101143;27;20099;-76
2023/09/23 06:01:00;;;;;;;3.42;1.55;;;;;;;7.01;100.00;100199.00;5080176;28;20087;-77
2023/09/23 06:03:26;;;;;;;7.60;2.25;;;;;;;7.09;100.00;100198.38;5077328;28;20825;-77
2023/09/23 06:05:51;;;;;;;6.00;1.98;;;;;;;7.06;100.00;100189.78;5081649;28;20036;-77
2023/09/23 06:08:17;;;;;;;9.88;1.92;;;;;;;7.06;100.00;100204.72;5073685;28;20032;-77
2023/09/23 06:10:43;;;;;;;5.93;1.90;;;;;;;7.01;100.00;100193.75;5052167;28;20032;-77
2023/09/23 06:13:12;;;;;;;5.45;1.80;;;;;;;6.91;100.00;100191.06;5075572;28;20054;-77
2023/09/23 06:15:38;;;;;;;4.75;1.38;;;;;;;6.91;100.00;100202.38;5075857;28;20039;-77
2023/09/23 06:18:03;;;;;;;3.75;1.73;;;;;;;6.90;100.00;100206.00;5078308;28;20046;-77
2023/09/23 06:20:29;;;;;;;5.40;1.30;;;;;;;6.83;100.00;100202.22;5076299;28;20107;-77
2023/09/23 06:22:55;;;;;;;8.18;1.50;;;;;;;6.79;100.00;100200.78;5087349;28;20027;-77
2023/09/23 06:25:20;;;;;;;6.97;1.65;;;;;;;6.77;100.00;100205.34;5065958;28;20048;-77
2023/09/23 06:27:46;;;;;;;5.28;1.40;;;;;;;6.75;100.00;100202.00;5066675;28;20027;-76
2023/09/23 06:30:15;;;;;;;5.32;1.40;;;;;;;6.70;100.00;100194.50;5091444;28;20082;-77
2023/09/23 06:32:42;;;;;;;6.65;1.80;;;;;;;6.43;100.00;100208.91;5076011;28;20035;-77
2023/09/23 06:35:09;;;;;;;5.43;1.60;;;;;;;6.30;100.00;100201.16;5083724;28;20032;-76
2023/09/23 06:37:35;;;;;;;7.82;1.92;;;;;;;6.17;100.00;100206.53;5068966;28;20036;-77
2023/09/23 06:40:01;;;;;;;6.75;1.52;;;;;;;6.23;100.00;100198.19;5051981;28;20032;-76
2023/09/23 06:42:27;;;;;;;8.18;1.83;;;;;;;6.33;100.00;100203.53;5091293;28;20120;-76
2023/09/23 06:44:52;;;;;;;8.63;1.80;;;;;;;6.37;100.00;100204.13;5065811;28;20484;-77
2023/09/23 06:47:20;;;;;;;8.40;2.08;;;;;;;6.46;100.00;100213.91;5075215;27;20020;-76
2023/09/23 06:49:45;;;;;;;11.18;2.53;;;;;;;6.50;100.00;100215.31;5061535;28;20821;-77
2023/09/23 06:52:12;;;;;;;4.57;1.63;;;;;;;6.55;100.00;100215.78;5075832;28;20031;-77
2023/09/23 06:54:38;;;;;;;7.60;1.67;;;;;;;6.53;100.00;100220.31;5075701;28;20054;-76
2023/09/23 06:57:03;;;;;;;8.95;1.88;;;;;;;6.59;100.00;100221.63;5081303;28;20040;-76
2023/09/23 06:59:29;;;;;;;5.03;1.38;;;;;;;6.61;100.00;100221.50;5075240;28;20031;-77
2023/09/23 07:01:55;;;;;;;8.38;1.70;;;;;;;6.69;100.00;100219.91;5077084;28;20034;-77
2023/09/23 07:04:21;;;;;;;9.23;1.60;;;;;;;6.77;100.00;100236.88;5071008;28;20043;-77
2023/09/23 07:06:47;;;;;;;7.05;1.77;;;;;;;6.87;100.00;100231.66;5085968;28;20029;-77
2023/09/23 07:09:13;;;;;;;3.78;1.20;;;;;;;6.92;100.00;100232.97;5065544;28;20040;-76
2023/09/23 07:11:40;;;;;;;4.78;1.50;;;;;;;6.98;100.00;100222.91;5074652;28;20028;-76
2023/09/23 07:14:05;;;;;;;6.78;1.52;;;;;;;7.05;100.00;100227.56;5076223;28;20099;-76
2023/09/23 07:16:33;;;;;;;9.13;1.85;;;;;;;7.14;100.00;100231.19;5070929;28;20046;-78
2023/09/23 07:19:03;;;;;;;4.43;2.17;;;;;;;7.19;100.00;100234.28;5089559;28;20035;-77
2023/09/23 07:21:29;;;;;;;10.70;2.15;;;;;;;7.23;100.00;100234.03;5069050;28;20035;-77
2023/09/23 07:23:56;;;;;;;9.82;2.03;;;;;;;7.32;100.00;100234.09;5088396;28;20149;-76
2023/09/23 07:26:23;;;;;;;15.20;2.50;;;;;;;7.44;100.00;100231.38;5072130;28;20039;-77
2023/09/23 07:28:52;;;;;;;4.60;1.55;;;;;;;7.57;100.00;100239.94;5103755;28;20028;-77
2023/09/23 07:31:17;;;;;;;7.80;2.00;;;;;;;7.66;100.00;100248.81;5082648;28;20475;-77
2023/09/23 07:33:44;;;;;;;6.55;1.77;;;;;;;7.63;100.00;100237.75;5101705;28;20032;-77
2023/09/23 07:36:13;;;;;;;5.97;1.65;;;;;;;7.71;100.00;100247.63;5070788;28;20487;-77
2023/09/23 07:38:40;;;;;;;8.23;1.70;;;;;;;7.67;100.00;100247.88;5069603;28;20123;-77
2023/09/23 07:41:06;;;;;;;7.35;2.10;;;;;;;7.69;100.00;100240.66;5100747;28;20450;-77
2023/09/23 07:43:33;;;;;;;6.90;3.10;;;;;;;7.71;100.00;100243.16;5071916;28;20073;-76
2023/09/23 07:45:58;;;;;;;12.45;2.10;;;;;;;7.74;100.00;100228.94;5068553;28;20035;-77
2023/09/23 07:48:24;;;;;;;6.05;1.80;;;;;;;7.80;100.00;100237.13;5069820;28;20039;-77
2023/09/23 07:50:50;;;;;;;5.80;1.73;;;;;;;7.85;100.00;100231.47;5084287;28;20035;-76
2023/09/23 07:53:15;;;;;;;6.72;1.90;;;;;;;7.95;100.00;100239.41;5089461;28;20043;-77
2023/09/23 07:55:43;;;;;;;10.50;2.50;;;;;;;7.99;100.00;100222.41;5068380;28;20043;-77
2023/09/23 07:58:09;;;;;;;11.80;2.50;;;;;;;7.99;100.00;100226.81;5087712;28;20059;-77
2023/09/23 08:00:35;;;;;;;7.22;1.95;;;;;;;7.95;100.00;100218.34;5066837;28;20556;-76
2023/09/23 08:03:01;;;;;;;6.28;1.80;;;;;;;7.98;100.00;100209.38;5070214;27;20377;-76
2023/09/23 08:05:29;;;;;;;10.38;2.50;;;;;;;8.05;100.00;100203.44;5089605;28;20032;-76
2023/09/23 08:07:55;;;;;;;7.50;1.63;;;;;;;8.14;100.00;100207.06;5073627;28;20024;-77
2023/09/23 08:10:21;;;;;;;8.02;2.55;;;;;;;8.22;100.00;100219.53;5073460;28;20067;-76
2023/09/23 08:12:47;;;;;;;6.97;2.08;;;;;;;8.26;100.00;100197.25;5084493;28;20085;-78
2023/09/23 08:15:13;;;;;;;8.57;1.73;;;;;;;8.27;100.00;100206.81;5062847;28;20348;-77
2023/09/23 08:17:40;;;;;;;9.32;1.67;;;;;;;8.25;100.00;100206.09;5065203;28;20032;-77
2023/09/23 08:20:17;;;;;;;9.30;2.00;;;;;;;8.27;100.00;100206.81;5084382;28;20028;-77
2023/09/23 08:22:47;;;;;;;6.22;1.88;;;;;;;8.30;100.00;100203.06;5095664;28;20032;-76
2023/09/23 08:25:14;;;;;;;6.88;1.77;;;;;;;8.29;100.00;100199.63;5058655;28;20122;-76
2023/09/23 08:27:42;;;;;;;6.60;1.80;;;;;;;8.35;100.00;100200.88;5067204;28;20040;-77
2023/09/23 08:30:12;;;;;;;10.40;1.75;;;;;;;8.35;100.00;100197.38;5084161;28;20092;-77
2023/09/23 08:32:39;;;;;;;9.20;3.38;;;;;;;8.34;100.00;100195.72;5078587;28;20447;-77
2023/09/23 08:35:07;;;;;;;10.10;1.60;;;;;;;8.40;100.00;100200.47;5064757;28;20122;-78
2023/09/23 08:37:34;;;;;;;12.30;2.42;;;;;;;8.44;100.00;100207.94;5068081;28;20061;-76
2023/09/23 08:40:00;;;;;;;9.88;2.67;;;;;;;8.52;100.00;100201.19;5064522;28;20035;-77
2023/09/23 08:42:27;;;;;;;10.20;2.08;;;;;;;8.56;100.00;100200.81;5070277;28;20066;-77
2023/09/23 08:44:54;;;;;;;6.22;2.13;;;;;;;8.66;100.00;100203.41;5076695;28;20032;-76
2023/09/23 08:47:20;;;;;;;11.63;2.28;;;;;;;8.79;100.00;100200.50;5067363;28;20032;-77
2023/09/23 08:49:49;;;;;;;13.15;1.80;;;;;;;8.90;100.00;100207.44;5081810;28;20047;-76
2023/09/23 08:52:19;;;;;;;12.32;2.53;;;;;;;9.05;100.00;100204.38;5087446;28;20047;-77
2023/09/23 08:54:50;;;;;;;10.77;2.10;;;;;;;9.11;100.00;100210.94;5067163;28;20032;-76
2023/09/23 08:57:16;;;;;;;10.52;1.95;;;;;;;9.13;100.00;100215.06;5084658;28;20036;-76
2023/09/23 08:59:45;;;;;;;15.80;2.63;;;;;;;9.22;100.00;100213.38;5097342;28;20055;-76
2023/09/23 09:02:16;;;;;;;12.50;1.80;;;;;;;9.28;100.00;100202.28;5106427;28;20499;-77
2023/09/23 09:04:42;;;;;;;14.35;2.72;;;;;;;9.30;100.00;100213.53;5063839;28;20092;-77
2023/09/23 09:07:08;;;;;;;8.15;1.65;;;;;;;9.33;100.00;100206.31;5087862;28;20023;-76
2023/09/23 09:09:37;;;;;;;10.25;1.80;;;;;;;9.38;100.00;100204.09;5067266;28;20058;-77
2023/09/23 09:12:02;;;;;;;14.07;1.50;;;;;;;9.39;100.00;100208.38;5080644;28;20036;-77
2023/09/23 09:14:28;;;;;;;9.60;1.83;;;;;;;9.47;100.00;100195.31;5054668;28;20039;-78
2023/09/23 09:16:54;;;;;;;10.13;2.10;;;;;;;9.57;100.00;100195.28;5088667;28;20043;-83
2023/09/23 09:19:20;;;;;;;13.27;2.53;;;;;;;9.65;100.00;100184.81;5065143;28;20083;-83
2023/09/23 09:21:46;;;;;;;9.77;1.75;;;;;;;9.77;100.00;100182.84;5068409;28;20032;-83
2023/09/23 09:24:11;;;;;;;18.60;2.17;;;;;;;9.82;100.00;100178.91;5069483;28;20048;-83
2023/09/23 09:26:40;;;;;;;11.02;2.00;;;;;;;9.89;100.00;100177.38;5057444;28;20031;-84
2023/09/23 09:29:06;;;;;;;7.75;1.90;;;;;;;9.98;100.00;100179.13;5069172;28;20032;-80
2023/09/23 09:31:34;;;;;;;13.23;2.20;;;;;;;10.13;100.00;100174.16;5098334;28;20066;-83
2023/09/23 09:34:09;;;;;;;10.48;1.75;;;;;;;10.19;100.00;100180.69;5088400;28;20038;-82
2023/09/23 09:36:37;;;;;;;9.60;1.42;;;;;;;10.20;100.00;100177.06;5053908;28;20036;-83
2023/09/23 09:39:08;;;;;;;9.50;1.65;;;;;;;10.25;100.00;100177.44;5070634;28;20043;-82
2023/09/23 09:41:50;;;;;;;11.35;1.98;;;;;;;10.41;100.00;100168.03;5082589;28;20051;-83
2023/09/23 09:44:16;;;;;;;13.43;2.05;;;;;;;10.47;100.00;100167.44;5054699;28;20036;-79
2023/09/23 09:46:44;;;;;;;8.50;1.85;;;;;;;10.51;100.00;100166.16;5054457;28;20031;-84
2023/09/23 09:49:11;;;;;;;12.63;2.00;;;;;;;10.54;100.00;100167.69;5057575;28;20027;-81
2023/09/23 09:51:39;;;;;;;9.57;1.83;;;;;;;10.54;100.00;100167.69;5053123;28;20038;-82
2023/09/23 09:54:09;;;;;;;9.95;2.30;;;;;;;10.47;100.00;100164.81;5052502;28;20035;-79
2023/09/23 09:56:36;;;;;;;9.40;1.92;;;;;;;10.51;100.00;100158.22;5086017;28;20043;-84
2023/09/23 09:59:03;;;;;;;11.93;2.13;;;;;;;10.54;100.00;100159.75;5056374;28;20043;-79
2023/09/23 10:01:29;;;;;;;15.00;1.90;;;;;;;10.62;100.00;100153.72;5061707;28;20035;-82
2023/09/23 10:03:55;;;;;;;9.90;2.10;;;;;;;10.66;100.00;100160.34;5061127;28;20032;-84
2023/09/23 10:06:22;;;;;;;10.38;2.00;;;;;;;10.76;100.00;100157.63;5065936;28;20028;-78
2023/09/23 10:08:49;;;;;;;10.20;1.88;;;;;;;10.79;100.00;100144.09;5074371;28;20031;-78
2023/09/23 10:11:16;;;;;;;12.95;1.70;;;;;;;10.84;100.00;100148.94;5092574;28;20051;-78
2023/09/23 10:13:42;;;;;;;9.80;1.90;;;;;;;10.89;100.00;100142.19;5103556;28;20027;-78
2023/09/23 10:16:19;;;;;;;13.93;2.72;;;;;;;11.01;100.00;100141.94;5064767;28;20040;-78
2023/09/23 10:18:54;;;;;;;13.85;2.13;;;;;;;11.00;100.00;100130.56;5078095;28;20110;-80
2023/09/23 10:21:25;;;;;;;8.10;2.22;;;;;;;11.01;100.00;100131.34;5069715;28;20028;-79
2023/09/23 10:23:55;;;;;;;12.93;2.17;;;;;;;11.03;100.00;100129.41;5071776;28;20044;-80
2023/09/23 10:26:23;;;;;;;8.98;1.83;;;;;;;11.07;100.00;100125.44;5081679;28;20114;-80
2023/09/23 10:29:01;;;;;;;7.95;1.77;;;;;;;11.24;100.00;100114.97;5057177;28;20048;-81
2023/09/23 10:31:28;;;;;;;6.28;1.90;;;;;;;11.22;100.00;100112.50;5051929;28;20101;-79
2023/09/23 10:33:55;;;;;;;9.25;2.17;;;;;;;11.24;100.00;100107.03;5080902;28;20031;-79
2023/09/23 10:36:22;;;;;;;9.75;1.98;;;;;;;11.23;100.00;100097.44;5047858;28;20040;-79
2023/09/23 10:38:48;;;;;;;4.95;1.27;;;;;;;11.18;100.00;100092.59;5100027;28;20038;-78
2023/09/23 10:41:14;;;;;;;9.75;2.75;;;;;;;11.20;100.00;100093.28;5066852;27;20031;-80
2023/09/23 10:43:40;;;;;;;11.45;2.03;;;;;;;11.26;100.00;100089.22;5050334;28;20038;-79
2023/09/23 10:46:06;;;;;;;12.50;2.08;;;;;;;11.34;100.00;100091.06;5055488;28;20161;-80
2023/09/23 10:48:33;;;;;;;9.63;1.70;;;;;;;11.35;100.00;100090.91;5057232;28;20027;-80
2023/09/23 10:51:00;;;;;;;12.60;2.20;;;;;;;11.38;100.00;100084.44;5061645;28;20096;-81
2023/09/23 10:53:30;;;;;;;11.45;2.13;;;;;;;11.40;100.00;100083.28;5057945;28;20027;-81
2023/09/23 10:55:57;;;;;;;9.57;1.95;;;;;;;11.48;100.00;100079.03;5075726;28;20513;-78
2023/09/23 10:58:23;;;;;;;13.52;2.50;;;;;;;11.53;100.00;100082.03;5067690;28;20119;-79
2023/09/23 11:00:51;;;;;;;14.25;2.47;;;;;;;11.61;100.00;100087.34;5109337;28;20127;-79
2023/09/23 11:03:19;;;;;;;9.85;1.85;;;;;;;11.69;100.00;100083.09;5072235;28;20127;-79
2023/09/23 11:05:47;;;;;;;10.88;1.83;;;;;;;11.74;100.00;100072.81;5067242;27;20038;-83
2023/09/23 11:08:14;;;;;;;9.45;1.77;;;;;;;11.85;100.00;100069.88;5066659;28;20113;-80
2023/09/23 11:10:42;;;;;;;13.40;2.70;;;;;;;11.90;100.00;100059.63;5092236;28;20039;-80
2023/09/23 11:13:10;;;;;;;16.55;2.17;;;;;;;11.94;100.00;100059.31;5086203;28;20047;-82
2023/09/23 11:15:43;;;;;;;12.43;2.25;;;;;;;12.03;100.00;100051.22;5055657;28;20031;-81
2023/09/23 11:18:10;;;;;;;11.30;2.63;;;;;;;12.11;100.00;100045.13;5086637;28;20035;-79
2023/09/23 11:20:40;;;;;;;8.07;1.80;;;;;;;12.26;100.00;100037.34;5063426;28;20042;-80
2023/09/23 11:23:07;;;;;;;8.23;1.75;;;;;;;12.38;100.00;100037.84;5089974;28;20042;-79
2023/09/23 11:25:44;;;;;;;10.55;1.95;;;;;;;12.62;100.00;100030.88;5047540;28;20523;-80